CZCP

Cape Parry Airport

Cape Parry, Canada
METAR CZCP 181400Z AUTO 28026G33KT ////SM //// OVC007 M01/M01 A2978
Observed Flight Rules
Aug-18 @ 14:00 UTC (52 minutes ago)
Wind Clouds
280° at 26 knots
 Gusting to 33 knots
  • Overcast at 700' AGL
Temperatures Readings
Current -1°C / 30°F
Dewpoint -1°C / 30°F
Humidity 100%
Altimeter 29.78" Hg
Pressure 1008 hPa
Elevation 93
METAR CZCP 181400Z AUTO 28026G33KT ////SM //// OVC007 M01/M01 A2978
Observed Flight Rules
Aug-18 @ 14:00 UTC
(52 minutes ago)
Wind
280° at 26 knots
 Gusting to 33 knots
Clouds
  • Overcast at 700' AGL
Temperature Dewpoint
-1°C / 30°F -1°C / 30°F
Humidity Altimeter Pressure
100% 29.78" Hg 1008 hPa